createdAt,value
2019-06-07T00:01:49.292Z,12.60
2019-06-07T00:04:22.127Z,12.60
2019-06-07T00:06:56.082Z,12.60
2019-06-07T00:09:28.757Z,12.60
2019-06-07T00:12:03.181Z,12.50
2019-06-07T00:14:35.898Z,12.50
2019-06-07T00:17:11.203Z,12.50
2019-06-07T00:19:43.158Z,12.50
2019-06-07T00:22:23.772Z,12.40
2019-06-07T00:24:50.467Z,12.50
2019-06-07T00:27:23.313Z,12.50
2019-06-07T00:29:56.082Z,12.50
2019-06-07T00:32:28.921Z,12.50
2019-06-07T00:35:01.498Z,12.50
2019-06-07T00:37:36.044Z,12.40
2019-06-07T00:40:16.276Z,12.30
2019-06-07T00:42:43.721Z,12.30
2019-06-07T00:45:19.997Z,12.20
2019-06-07T00:47:51.702Z,12.10
2019-06-07T00:50:24.667Z,12.00
2019-06-07T00:55:32.186Z,11.90
2019-06-07T00:58:04.852Z,11.90
2019-06-07T01:00:37.437Z,11.90
2019-06-07T01:03:10.243Z,11.80
2019-06-07T01:05:43.933Z,11.80
2019-06-07T01:08:19.999Z,11.80
2019-06-07T01:10:54.294Z,11.80
2019-06-07T01:13:27.244Z,11.80
2019-06-07T01:15:59.867Z,11.80
2019-06-07T01:18:40.376Z,11.80
2019-06-07T01:21:08.437Z,11.80
2019-06-07T01:24:08.135Z,11.80
2019-06-07T01:26:18.964Z,11.80
2019-06-07T01:28:50.482Z,11.80
2019-06-07T01:31:27.536Z,11.70
2019-06-07T01:33:57.693Z,11.70
2019-06-07T01:36:31.101Z,11.80
2019-06-07T01:39:05.873Z,11.70
2019-06-07T01:41:39.657Z,11.70
2019-06-07T01:44:12.469Z,11.70
2019-06-07T01:46:45.250Z,11.70
2019-06-07T01:49:19.332Z,11.60
2019-06-07T01:51:53.962Z,11.60
2019-06-07T01:54:52.092Z,11.60
2019-06-07T01:57:01.763Z,11.60
2019-06-07T01:59:34.395Z,11.50
2019-06-07T02:02:07.069Z,11.50
2019-06-07T02:04:39.842Z,11.50
2019-06-07T02:07:12.520Z,11.50
2019-06-07T02:09:47.011Z,11.50
2019-06-07T02:12:31.238Z,11.50
2019-06-07T02:14:54.304Z,11.50
2019-06-07T02:17:30.164Z,11.50
2019-06-07T02:20:01.762Z,11.50
2019-06-07T02:22:34.597Z,11.50
2019-06-07T02:27:41.970Z,11.50
2019-06-07T02:32:49.308Z,11.50
2019-06-07T02:35:23.466Z,11.50
2019-06-07T02:37:56.426Z,11.50
2019-06-07T02:40:36.064Z,11.40
2019-06-07T02:43:04.786Z,11.40
2019-06-07T02:45:43.113Z,11.40
2019-06-07T02:48:13.285Z,11.40
2019-06-07T02:50:45.900Z,11.40
2019-06-07T02:53:18.515Z,11.40
2019-06-07T02:56:33.877Z,11.30
2019-06-07T02:58:29.932Z,11.30
2019-06-07T03:01:08.399Z,11.30
2019-06-07T03:03:39.925Z,11.30
2019-06-07T03:06:14.518Z,11.30
2019-06-07T03:08:49.043Z,11.20
2019-06-07T03:11:23.423Z,11.20
2019-06-07T03:13:56.453Z,11.20
2019-06-07T03:16:37.265Z,11.10
2019-06-07T03:19:24.305Z,11.20
2019-06-07T03:21:58.485Z,11.20
2019-06-07T03:24:33.681Z,11.20
2019-06-07T03:29:41.485Z,11.10
2019-06-07T03:32:14.245Z,11.10
2019-06-07T03:34:48.025Z,11.00
2019-06-07T03:37:20.750Z,11.00
2019-06-07T03:39:53.408Z,11.00
2019-06-07T03:42:27.136Z,11.00
2019-06-07T03:44:59.755Z,11.00
2019-06-07T03:47:36.508Z,11.00
2019-06-07T03:50:09.111Z,11.00
2019-06-07T03:52:41.921Z,10.90
2019-06-07T03:55:14.709Z,11.00
2019-06-07T03:58:30.219Z,11.00
2019-06-07T04:00:22.216Z,11.00
2019-06-07T04:02:54.809Z,11.00
2019-06-07T04:05:32.022Z,11.00
2019-06-07T04:08:03.853Z,11.00
2019-06-07T04:10:54.957Z,11.00
2019-06-07T04:13:11.040Z,11.10
2019-06-07T04:15:44.034Z,11.20
2019-06-07T04:18:16.809Z,11.20
2019-06-07T04:20:49.645Z,11.20
2019-06-07T04:23:27.743Z,11.20
2019-06-07T04:25:59.076Z,11.30
2019-06-07T04:29:29.590Z,11.30
2019-06-07T04:31:08.614Z,11.20
2019-06-07T04:33:43.637Z,11.30
2019-06-07T04:36:15.761Z,11.20
2019-06-07T04:38:49.651Z,11.20
2019-06-07T04:41:24.767Z,11.20
2019-06-07T04:44:00.561Z,11.20
2019-06-07T04:46:35.164Z,11.20
2019-06-07T04:49:09.127Z,11.20
2019-06-07T04:51:43.540Z,11.10
2019-06-07T04:54:16.242Z,11.10
2019-06-07T04:56:49.113Z,11.10
2019-06-07T05:00:01.130Z,11.10
2019-06-07T05:01:57.055Z,11.10
2019-06-07T05:04:33.188Z,11.10
2019-06-07T05:07:06.999Z,11.10
2019-06-07T05:09:43.176Z,11.10
2019-06-07T05:12:14.510Z,11.30
2019-06-07T05:14:48.991Z,11.40
2019-06-07T05:17:21.657Z,11.50
2019-06-07T05:19:54.340Z,11.60
2019-06-07T05:22:27.092Z,11.70
2019-06-07T05:24:59.825Z,11.80
2019-06-07T05:27:35.506Z,11.90
2019-06-07T05:30:13.722Z,12.10
2019-06-07T05:32:46.110Z,12.10
2019-06-07T05:35:18.461Z,12.10
2019-06-07T05:37:51.160Z,12.20
2019-06-07T05:40:37.286Z,12.30
2019-06-07T05:43:25.680Z,12.40
2019-06-07T05:45:58.489Z,12.50
2019-06-07T05:48:31.786Z,12.70
2019-06-07T05:51:04.493Z,12.80
2019-06-07T05:53:39.019Z,13.00
2019-06-07T05:56:13.158Z,13.10
2019-06-07T05:58:46.299Z,13.20
2019-06-07T06:01:42.868Z,13.40
2019-06-07T06:03:53.480Z,13.60
2019-06-07T06:06:26.195Z,13.60
2019-06-07T06:09:13.439Z,13.80
2019-06-07T06:11:45.901Z,13.90
2019-06-07T06:14:08.610Z,14.10
2019-06-07T06:16:44.384Z,14.20
2019-06-07T06:19:17.032Z,14.30
2019-06-07T06:21:49.677Z,14.40
2019-06-07T06:24:22.456Z,14.30
2019-06-07T06:27:12.828Z,14.40
2019-06-07T06:29:29.792Z,14.50
2019-06-07T06:32:40.659Z,14.60
2019-06-07T06:34:40.153Z,14.30
2019-06-07T06:37:11.453Z,14.40
2019-06-07T06:39:46.601Z,14.60
2019-06-07T06:42:18.827Z,14.60
2019-06-07T06:44:54.045Z,14.80
2019-06-07T06:47:27.293Z,14.80
2019-06-07T06:50:02.455Z,14.90
2019-06-07T06:52:35.301Z,15.00
2019-06-07T06:55:09.208Z,14.90
2019-06-07T06:57:43.407Z,14.90
2019-06-07T07:00:17.032Z,15.10
2019-06-07T07:03:40.690Z,15.10
2019-06-07T07:05:24.562Z,15.10
2019-06-07T07:07:57.142Z,15.30
2019-06-07T07:10:38.773Z,15.40
2019-06-07T07:13:11.719Z,15.40
2019-06-07T07:15:50.111Z,15.60
2019-06-07T07:18:20.712Z,15.80
2019-06-07T07:20:56.816Z,16.00
2019-06-07T07:23:27.968Z,16.10
2019-06-07T07:26:00.711Z,16.10
2019-06-07T07:28:33.520Z,16.30
2019-06-07T07:31:06.205Z,16.40
2019-06-07T07:36:37.485Z,16.40
2019-06-07T07:38:56.227Z,16.40
2019-06-07T07:41:23.742Z,16.80
2019-06-07T07:44:05.275Z,16.80
2019-06-07T07:46:32.197Z,16.60
2019-06-07T07:49:06.607Z,16.90
2019-06-07T07:51:39.483Z,16.90
2019-06-07T07:54:12.069Z,17.10
2019-06-07T07:56:45.730Z,17.30
2019-06-07T07:59:19.403Z,17.50
2019-06-07T08:01:55.547Z,17.70
2019-06-07T08:05:12.388Z,17.70
2019-06-07T08:07:01.156Z,17.90
2019-06-07T08:09:33.888Z,18.00
2019-06-07T08:12:06.724Z,17.90
2019-06-07T08:14:39.581Z,18.10
2019-06-07T08:17:12.357Z,18.10
2019-06-07T08:19:47.641Z,18.20
2019-06-07T08:22:19.785Z,18.20
2019-06-07T08:24:53.727Z,18.10
2019-06-07T08:27:27.259Z,18.20
2019-06-07T08:30:25.945Z,18.20
2019-06-07T08:32:35.491Z,18.50
2019-06-07T08:35:08.632Z,18.70
2019-06-07T08:38:15.201Z,18.90
2019-06-07T08:40:16.102Z,18.70
2019-06-07T08:43:10.855Z,18.80
2019-06-07T08:45:24.098Z,18.80
2019-06-07T08:48:01.640Z,18.90
2019-06-07T08:50:33.068Z,18.80
2019-06-07T08:53:12.326Z,18.80
2019-06-07T08:55:40.487Z,19.10
2019-06-07T08:58:13.389Z,19.20
2019-06-07T09:00:47.430Z,19.20
2019-06-07T09:03:20.644Z,19.50
2019-06-07T09:05:54.187Z,19.60
2019-06-07T09:08:30.843Z,19.50
2019-06-07T09:11:10.462Z,19.40
2019-06-07T09:13:37.074Z,19.30
2019-06-07T09:16:09.769Z,19.30
2019-06-07T09:18:44.795Z,19.30
2019-06-07T09:21:17.215Z,19.40
2019-06-07T09:23:51.260Z,19.40
2019-06-07T09:26:24.047Z,19.30
2019-06-07T09:28:58.529Z,19.60
2019-06-07T09:31:51.215Z,19.70
2019-06-07T09:34:11.789Z,20.20
2019-06-07T09:36:42.182Z,20.50
2019-06-07T09:39:14.813Z,20.30
2019-06-07T09:41:50.360Z,20.70
2019-06-07T09:44:26.035Z,21.30
2019-06-07T09:47:20.130Z,21.40
2019-06-07T09:49:33.193Z,21.70
2019-06-07T09:52:10.430Z,21.20
2019-06-07T09:55:06.290Z,21.00
2019-06-07T09:57:17.456Z,20.70
2019-06-07T09:59:49.618Z,20.90
2019-06-07T10:02:22.451Z,21.50
2019-06-07T10:04:55.125Z,21.30
2019-06-07T10:07:31.818Z,21.10
2019-06-07T10:12:37.197Z,22.00
2019-06-07T10:15:09.983Z,21.80
2019-06-07T10:17:42.604Z,22.10
2019-06-07T10:20:15.713Z,22.70
2019-06-07T10:22:48.531Z,22.50
2019-06-07T10:25:21.406Z,22.40
2019-06-07T10:27:54.164Z,22.30
2019-06-07T10:30:26.803Z,22.50
2019-06-07T10:32:59.996Z,22.80
2019-06-07T10:35:34.023Z,23.10
2019-06-07T10:38:06.707Z,23.20
2019-06-07T10:40:39.421Z,22.80
2019-06-07T10:43:14.470Z,22.90
2019-06-07T10:45:47.012Z,22.80
2019-06-07T10:48:19.694Z,23.30
2019-06-07T10:50:52.453Z,23.70
2019-06-07T10:53:25.371Z,24.00
2019-06-07T10:55:57.995Z,24.20
2019-06-07T10:58:30.735Z,24.50
2019-06-07T11:01:03.494Z,24.90
2019-06-07T11:03:36.281Z,25.10
2019-06-07T11:06:10.096Z,25.30
2019-06-07T11:08:43.046Z,24.90
2019-06-07T11:11:15.766Z,25.00
2019-06-07T11:13:48.400Z,24.80
2019-06-07T11:16:21.070Z,25.00
2019-06-07T11:18:53.987Z,24.70
2019-06-07T11:21:27.781Z,25.00
2019-06-07T11:24:01.806Z,25.00
2019-06-07T11:26:34.524Z,24.60
2019-06-07T11:29:10.932Z,25.00
2019-06-07T11:31:47.187Z,24.80
2019-06-07T11:34:18.880Z,24.80
2019-06-07T11:36:51.891Z,24.70
2019-06-07T11:39:26.631Z,24.10
2019-06-07T11:41:59.475Z,24.20
2019-06-07T11:44:32.312Z,23.80
2019-06-07T11:47:06.378Z,24.00
2019-06-07T11:49:40.625Z,24.10
2019-06-07T11:52:13.933Z,23.90
2019-06-07T11:54:48.172Z,24.50
2019-06-07T11:57:22.361Z,25.60
2019-06-07T11:59:56.151Z,26.60
2019-06-07T12:02:28.837Z,27.00
2019-06-07T12:05:01.732Z,28.00
2019-06-07T12:07:34.422Z,27.50
2019-06-07T12:10:08.546Z,27.10
2019-06-07T12:12:41.354Z,27.50
2019-06-07T12:15:16.964Z,27.80
2019-06-07T12:17:51.430Z,28.00
2019-06-07T12:20:24.081Z,27.70
2019-06-07T12:22:58.728Z,27.80
2019-06-07T12:25:31.472Z,27.30
2019-06-07T12:28:04.171Z,27.40
2019-06-07T12:30:36.947Z,27.60
2019-06-07T12:33:09.607Z,26.90
2019-06-07T12:35:42.522Z,26.30
2019-06-07T12:38:17.378Z,25.50
2019-06-07T12:40:57.601Z,25.50
2019-06-07T12:43:24.579Z,25.30
2019-06-07T12:45:58.426Z,25.80
2019-06-07T12:48:31.121Z,26.10
2019-06-07T12:51:03.928Z,25.40
2019-06-07T12:53:36.641Z,25.00
2019-06-07T12:56:13.499Z,24.90
2019-06-07T12:58:46.443Z,25.30
2019-06-07T13:01:20.848Z,25.30
2019-06-07T13:03:55.321Z,25.90
2019-06-07T13:06:28.121Z,25.90
2019-06-07T13:09:02.356Z,24.90
2019-06-07T13:11:36.884Z,24.70
2019-06-07T13:14:09.624Z,24.00
2019-06-07T13:16:42.269Z,24.10
2019-06-07T13:19:16.205Z,24.00
2019-06-07T13:21:48.982Z,23.50
2019-06-07T13:24:22.832Z,23.70
2019-06-07T13:26:55.633Z,24.60
2019-06-07T13:29:31.640Z,25.00
2019-06-07T13:32:03.069Z,25.50
2019-06-07T13:34:35.708Z,25.70
2019-06-07T13:37:08.376Z,25.80
2019-06-07T13:39:41.033Z,25.80
2019-06-07T13:42:13.873Z,25.10
2019-06-07T13:44:48.284Z,25.40
2019-06-07T13:47:21.270Z,25.70
2019-06-07T13:49:55.484Z,26.00
2019-06-07T13:52:28.575Z,26.80
2019-06-07T13:55:03.470Z,27.80
2019-06-07T13:57:38.013Z,28.30
2019-06-07T14:00:12.384Z,27.60
2019-06-07T14:02:47.106Z,27.90
2019-06-07T14:05:20.971Z,27.50
2019-06-07T14:07:53.902Z,27.60
2019-06-07T14:10:29.558Z,28.00
2019-06-07T14:13:02.573Z,28.70
2019-06-07T14:15:36.981Z,28.10
2019-06-07T14:18:09.904Z,28.90
2019-06-07T14:20:42.671Z,28.90
2019-06-07T14:23:15.460Z,28.60
2019-06-07T14:25:51.670Z,28.30
2019-06-07T14:28:27.121Z,26.90
2019-06-07T14:31:00.923Z,26.40
2019-06-07T14:33:35.043Z,26.10
2019-06-07T14:36:09.220Z,26.40
2019-06-07T14:38:42.088Z,26.90
2019-06-07T14:41:14.832Z,26.80
2019-06-07T14:43:47.640Z,27.00
2019-06-07T14:46:23.481Z,25.90
2019-06-07T14:48:56.377Z,25.40
2019-06-07T14:51:31.329Z,25.20
2019-06-07T14:54:03.914Z,24.60
2019-06-07T14:56:36.833Z,24.70
2019-06-07T14:59:09.594Z,24.40
2019-06-07T15:01:44.240Z,24.40
2019-06-07T15:04:18.774Z,24.40
2019-06-07T15:06:52.564Z,24.30
2019-06-07T15:09:26.721Z,24.20
2019-06-07T15:11:59.800Z,23.90
2019-06-07T15:14:33.797Z,23.70
2019-06-07T15:17:06.453Z,23.30
2019-06-07T15:19:39.149Z,23.20
2019-06-07T15:22:11.932Z,23.20
2019-06-07T15:24:44.549Z,23.20
2019-06-07T15:27:18.501Z,23.30
2019-06-07T15:29:51.269Z,23.10
2019-06-07T15:32:24.009Z,23.00
2019-06-07T15:34:56.848Z,22.70
2019-06-07T15:37:30.497Z,22.70
2019-06-07T15:40:04.047Z,22.60
2019-06-07T15:42:49.085Z,22.50
2019-06-07T15:45:12.550Z,22.50
2019-06-07T15:47:45.328Z,22.30
2019-06-07T15:50:18.252Z,21.50
2019-06-07T15:52:51.094Z,20.00
2019-06-07T15:55:23.881Z,19.20
2019-06-07T15:57:56.664Z,18.80
2019-06-07T16:00:29.382Z,18.70
2019-06-07T16:03:02.234Z,18.50
2019-06-07T16:05:36.301Z,18.40
2019-06-07T16:08:11.098Z,18.30
2019-06-07T16:10:43.933Z,18.40
2019-06-07T16:13:16.699Z,18.40
2019-06-07T16:15:50.544Z,18.50
2019-06-07T16:18:23.231Z,18.60
2019-06-07T16:20:55.979Z,18.80
2019-06-07T16:23:28.744Z,18.80
2019-06-07T16:26:01.399Z,19.00
2019-06-07T16:28:34.313Z,19.80
2019-06-07T16:31:06.985Z,20.10
2019-06-07T16:33:41.475Z,20.70
2019-06-07T16:36:14.359Z,21.40
2019-06-07T16:38:47.036Z,20.60
2019-06-07T16:41:19.776Z,19.70
2019-06-07T16:43:52.673Z,18.80
2019-06-07T16:46:26.495Z,18.50
2019-06-07T16:48:59.219Z,18.00
2019-06-07T16:51:31.979Z,17.80
2019-06-07T16:54:04.768Z,17.70
2019-06-07T16:56:37.548Z,17.60
2019-06-07T16:59:10.298Z,17.40
2019-06-07T17:01:43.187Z,17.30
2019-06-07T17:04:16.140Z,17.30
2019-06-07T17:06:49.010Z,17.20
2019-06-07T17:09:21.763Z,17.10
2019-06-07T17:11:54.500Z,17.00
2019-06-07T17:14:27.240Z,17.00
2019-06-07T17:17:01.082Z,17.00
2019-06-07T17:19:33.931Z,16.90
2019-06-07T17:22:06.721Z,16.90
2019-06-07T17:24:39.416Z,16.80
2019-06-07T17:27:13.899Z,16.70
2019-06-07T17:29:49.966Z,16.70
2019-06-07T17:32:22.815Z,16.70
2019-06-07T17:34:55.801Z,16.80
2019-06-07T17:37:28.579Z,16.70
2019-06-07T17:40:03.604Z,16.90
2019-06-07T17:42:38.238Z,16.90
2019-06-07T17:45:11.707Z,16.90
2019-06-07T17:47:45.851Z,16.90
2019-06-07T17:50:20.687Z,16.80
2019-06-07T17:52:53.651Z,16.90
2019-06-07T17:55:26.447Z,16.90
2019-06-07T17:58:00.267Z,16.80
2019-06-07T18:00:53.101Z,16.80
2019-06-07T18:03:25.962Z,16.70
2019-06-07T18:05:59.977Z,16.60
2019-06-07T18:08:32.951Z,16.50
2019-06-07T18:11:05.624Z,16.50
2019-06-07T18:13:38.252Z,16.50
2019-06-07T18:16:12.160Z,16.50
2019-06-07T18:18:44.882Z,16.50
2019-06-07T18:21:17.630Z,16.50
2019-06-07T18:23:52.865Z,16.60
2019-06-07T18:26:25.149Z,16.60
2019-06-07T18:28:59.323Z,16.50
2019-06-07T18:31:33.628Z,16.60
2019-06-07T18:34:06.442Z,16.60
2019-06-07T18:36:39.245Z,16.60
2019-06-07T18:39:11.976Z,16.70
2019-06-07T18:41:44.652Z,16.70
2019-06-07T18:44:21.522Z,16.80
2019-06-07T18:46:52.269Z,16.90
2019-06-07T18:49:25.135Z,16.90
2019-06-07T18:52:18.157Z,16.90
2019-06-07T18:54:51.019Z,16.90
2019-06-07T18:57:26.631Z,17.00
2019-06-07T18:59:59.523Z,17.00
2019-06-07T19:02:33.956Z,17.00
2019-06-07T19:05:07.781Z,17.00
2019-06-07T19:07:40.651Z,17.10
2019-06-07T19:10:14.261Z,17.20
2019-06-07T19:12:47.151Z,17.30
2019-06-07T19:15:20.955Z,17.30
2019-06-07T19:17:54.009Z,17.20
2019-06-07T19:20:28.906Z,17.20
2019-06-07T19:23:01.877Z,17.10
2019-06-07T19:25:35.718Z,17.10
2019-06-07T19:28:08.470Z,17.10
2019-06-07T19:30:41.230Z,17.10
2019-06-07T19:33:13.996Z,17.10
2019-06-07T19:35:46.847Z,17.00
2019-06-07T19:38:21.456Z,17.00
2019-06-07T19:40:54.151Z,17.10
2019-06-07T19:43:26.797Z,17.10
2019-06-07T19:46:00.372Z,17.10
2019-06-07T19:48:33.183Z,17.20
2019-06-07T19:51:05.797Z,17.20
2019-06-07T19:53:38.658Z,17.10
2019-06-07T19:56:12.553Z,17.20
2019-06-07T19:58:45.285Z,17.20
2019-06-07T20:01:18.184Z,17.10
2019-06-07T20:03:50.917Z,17.10
2019-06-07T20:06:23.691Z,17.00
2019-06-07T20:08:56.627Z,17.00
2019-06-07T20:11:29.557Z,17.00
2019-06-07T20:14:03.038Z,17.00
2019-06-07T20:16:35.949Z,17.00
2019-06-07T20:19:09.106Z,16.90
2019-06-07T20:21:41.922Z,16.90
2019-06-07T20:24:27.648Z,16.80
2019-06-07T20:27:00.516Z,16.80
2019-06-07T20:29:33.237Z,16.80
2019-06-07T20:32:06.044Z,16.70
2019-06-07T20:34:38.787Z,16.60
2019-06-07T20:37:13.741Z,16.60
2019-06-07T20:39:46.557Z,16.60
2019-06-07T20:42:19.266Z,16.60
2019-06-07T20:44:53.817Z,16.60
2019-06-07T20:47:26.579Z,16.50
2019-06-07T20:50:00.518Z,16.40
2019-06-07T20:52:34.635Z,16.40
2019-06-07T20:55:09.442Z,16.40
2019-06-07T20:57:42.515Z,16.30
2019-06-07T21:00:21.713Z,16.20
2019-06-07T21:02:52.762Z,16.10
2019-06-07T21:05:26.650Z,16.00
2019-06-07T21:07:59.429Z,16.00
2019-06-07T21:10:32.268Z,15.90
2019-06-07T21:13:05.930Z,15.90
2019-06-07T21:15:48.313Z,15.90
2019-06-07T21:18:19.513Z,15.90
2019-06-07T21:20:48.004Z,15.90
2019-06-07T21:23:20.942Z,15.80
2019-06-07T21:25:53.720Z,15.80
2019-06-07T21:28:26.425Z,15.80
2019-06-07T21:30:59.029Z,15.80
2019-06-07T21:33:31.849Z,15.80
2019-06-07T21:36:06.002Z,15.80
2019-06-07T21:38:38.913Z,15.80
2019-06-07T21:41:12.636Z,15.80
2019-06-07T21:43:45.599Z,15.90
2019-06-07T21:46:20.418Z,16.00
2019-06-07T21:48:52.958Z,16.00
2019-06-07T21:51:25.833Z,16.00
2019-06-07T21:53:59.645Z,16.00
2019-06-07T21:56:32.528Z,16.10
2019-06-07T21:59:05.154Z,16.10
2019-06-07T22:01:38.041Z,16.20
2019-06-07T22:04:11.732Z,16.20
2019-06-07T22:06:45.534Z,16.40
2019-06-07T22:09:18.275Z,16.40
2019-06-07T22:11:50.953Z,16.50
2019-06-07T22:14:23.602Z,16.50
2019-06-07T22:16:56.202Z,16.50
2019-06-07T22:19:29.998Z,16.40
2019-06-07T22:22:05.232Z,16.40
2019-06-07T22:24:38.455Z,16.40
2019-06-07T22:27:11.354Z,16.50
2019-06-07T22:29:46.069Z,16.50
2019-06-07T22:32:19.178Z,16.40
2019-06-07T22:34:52.089Z,16.40
2019-06-07T22:37:24.734Z,16.40
2019-06-07T22:39:57.391Z,16.40
2019-06-07T22:42:30.240Z,16.40
2019-06-07T22:45:03.593Z,16.40
2019-06-07T22:47:36.719Z,16.40
2019-06-07T22:50:10.902Z,16.40
2019-06-07T22:52:44.054Z,16.40
2019-06-07T22:55:16.738Z,16.40
2019-06-07T22:57:56.528Z,16.40
2019-06-07T23:00:30.784Z,16.50
2019-06-07T23:03:03.795Z,16.50
2019-06-07T23:05:36.545Z,16.40
2019-06-07T23:08:09.357Z,16.50
2019-06-07T23:10:43.918Z,16.50
2019-06-07T23:13:17.820Z,16.50
2019-06-07T23:15:51.017Z,16.50
2019-06-07T23:18:23.667Z,16.40
2019-06-07T23:20:56.400Z,16.40
2019-06-07T23:23:30.159Z,16.40
2019-06-07T23:26:02.965Z,16.40
2019-06-07T23:28:35.767Z,16.30
2019-06-07T23:31:08.597Z,16.40
2019-06-07T23:33:41.275Z,16.30
2019-06-07T23:36:15.069Z,16.30
2019-06-07T23:38:47.939Z,16.30
2019-06-07T23:41:22.181Z,16.20
2019-06-07T23:43:57.716Z,16.20
2019-06-07T23:46:30.379Z,16.10
2019-06-07T23:49:04.145Z,16.10
2019-06-07T23:51:38.587Z,16.10
2019-06-07T23:54:11.522Z,16.10
2019-06-07T23:56:44.330Z,16.00
2019-06-07T23:59:18.132Z,16.00
